sensor_id;sensor_type;location;lat;lon;timestamp;P1;durP1;ratioP1;P2;durP2;ratioP2
4676;SDS011;2352;48.180;11.478;2023-05-18T00:02:38;6.67;;;4.83;;
4676;SDS011;2352;48.180;11.478;2023-05-18T00:05:41;5.07;;;4.67;;
4676;SDS011;2352;48.180;11.478;2023-05-18T00:08:44;4.70;;;4.23;;
4676;SDS011;2352;48.180;11.478;2023-05-18T00:11:47;6.23;;;4.60;;
4676;SDS011;2352;48.180;11.478;2023-05-18T00:14:51;4.80;;;4.30;;
4676;SDS011;2352;48.180;11.478;2023-05-18T00:17:54;4.73;;;4.33;;
4676;SDS011;2352;48.180;11.478;2023-05-18T00:20:57;5.77;;;5.27;;
4676;SDS011;2352;48.180;11.478;2023-05-18T00:24:00;9.10;;;4.87;;
4676;SDS011;2352;48.180;11.478;2023-05-18T00:27:03;5.07;;;4.57;;
4676;SDS011;2352;48.180;11.478;2023-05-18T00:30:07;5.90;;;5.40;;
4676;SDS011;2352;48.180;11.478;2023-05-18T00:33:11;6.93;;;5.20;;
4676;SDS011;2352;48.180;11.478;2023-05-18T00:36:14;5.90;;;5.30;;
4676;SDS011;2352;48.180;11.478;2023-05-18T00:39:17;4.93;;;4.53;;
4676;SDS011;2352;48.180;11.478;2023-05-18T00:42:20;6.23;;;5.73;;
4676;SDS011;2352;48.180;11.478;2023-05-18T00:45:24;6.23;;;5.63;;
4676;SDS011;2352;48.180;11.478;2023-05-18T00:48:27;7.33;;;6.47;;
4676;SDS011;2352;48.180;11.478;2023-05-18T00:51:30;5.10;;;4.60;;
4676;SDS011;2352;48.180;11.478;2023-05-18T00:54:34;5.97;;;5.43;;
4676;SDS011;2352;48.180;11.478;2023-05-18T00:57:37;7.43;;;6.77;;
4676;SDS011;2352;48.180;11.478;2023-05-18T01:00:43;6.23;;;5.63;;
4676;SDS011;2352;48.180;11.478;2023-05-18T01:03:46;8.07;;;5.60;;
4676;SDS011;2352;48.180;11.478;2023-05-18T01:06:49;5.30;;;4.80;;
4676;SDS011;2352;48.180;11.478;2023-05-18T01:09:56;5.30;;;4.90;;
4676;SDS011;2352;48.180;11.478;2023-05-18T01:13:00;5.17;;;4.77;;
4676;SDS011;2352;48.180;11.478;2023-05-18T01:16:08;5.00;;;4.33;;
4676;SDS011;2352;48.180;11.478;2023-05-18T01:19:20;5.17;;;4.77;;
4676;SDS011;2352;48.180;11.478;2023-05-18T01:22:37;7.10;;;5.43;;
4676;SDS011;2352;48.180;11.478;2023-05-18T01:26:00;6.17;;;5.57;;
4676;SDS011;2352;48.180;11.478;2023-05-18T01:29:12;6.03;;;5.53;;
4676;SDS011;2352;48.180;11.478;2023-05-18T01:32:17;6.13;;;5.53;;
4676;SDS011;2352;48.180;11.478;2023-05-18T01:35:20;7.40;;;5.53;;
4676;SDS011;2352;48.180;11.478;2023-05-18T01:38:23;6.83;;;5.73;;
4676;SDS011;2352;48.180;11.478;2023-05-18T01:41:30;6.17;;;5.53;;
4676;SDS011;2352;48.180;11.478;2023-05-18T01:44:40;6.40;;;5.80;;
4676;SDS011;2352;48.180;11.478;2023-05-18T01:47:49;5.93;;;5.43;;
4676;SDS011;2352;48.180;11.478;2023-05-18T01:50:57;7.10;;;5.30;;
4676;SDS011;2352;48.180;11.478;2023-05-18T01:54:03;5.27;;;4.87;;
4676;SDS011;2352;48.180;11.478;2023-05-18T01:57:10;8.97;;;5.13;;
4676;SDS011;2352;48.180;11.478;2023-05-18T02:00:14;5.87;;;5.30;;
4676;SDS011;2352;48.180;11.478;2023-05-18T02:03:17;8.27;;;5.87;;
4676;SDS011;2352;48.180;11.478;2023-05-18T02:06:21;6.23;;;5.33;;
4676;SDS011;2352;48.180;11.478;2023-05-18T02:09:23;5.27;;;4.77;;
4676;SDS011;2352;48.180;11.478;2023-05-18T02:12:28;7.57;;;4.77;;
4676;SDS011;2352;48.180;11.478;2023-05-18T02:15:31;5.27;;;4.87;;
4676;SDS011;2352;48.180;11.478;2023-05-18T02:18:33;5.13;;;4.73;;
4676;SDS011;2352;48.180;11.478;2023-05-18T02:21:36;6.87;;;4.97;;
4676;SDS011;2352;48.180;11.478;2023-05-18T02:24:40;5.23;;;4.80;;
4676;SDS011;2352;48.180;11.478;2023-05-18T02:27:44;5.17;;;4.80;;
4676;SDS011;2352;48.180;11.478;2023-05-18T02:30:47;8.50;;;6.03;;
4676;SDS011;2352;48.180;11.478;2023-05-18T02:33:50;6.47;;;5.67;;
4676;SDS011;2352;48.180;11.478;2023-05-18T02:36:53;5.33;;;4.90;;
4676;SDS011;2352;48.180;11.478;2023-05-18T02:39:58;7.10;;;4.97;;
4676;SDS011;2352;48.180;11.478;2023-05-18T02:43:02;7.40;;;5.07;;
4676;SDS011;2352;48.180;11.478;2023-05-18T02:46:05;5.33;;;4.50;;
4676;SDS011;2352;48.180;11.478;2023-05-18T02:49:08;5.23;;;4.73;;
4676;SDS011;2352;48.180;11.478;2023-05-18T02:52:12;5.53;;;5.13;;
4676;SDS011;2352;48.180;11.478;2023-05-18T02:55:14;6.20;;;5.20;;
4676;SDS011;2352;48.180;11.478;2023-05-18T02:58:20;5.77;;;5.13;;
4676;SDS011;2352;48.180;11.478;2023-05-18T03:01:25;5.97;;;5.37;;
4676;SDS011;2352;48.180;11.478;2023-05-18T03:04:28;6.47;;;5.27;;
4676;SDS011;2352;48.180;11.478;2023-05-18T03:07:32;5.53;;;5.00;;
4676;SDS011;2352;48.180;11.478;2023-05-18T03:10:34;5.57;;;5.07;;
4676;SDS011;2352;48.180;11.478;2023-05-18T03:13:39;6.43;;;5.60;;
4676;SDS011;2352;48.180;11.478;2023-05-18T03:16:43;8.77;;;5.37;;
4676;SDS011;2352;48.180;11.478;2023-05-18T03:19:46;7.43;;;5.40;;
4676;SDS011;2352;48.180;11.478;2023-05-18T03:22:49;14.50;;;5.97;;
4676;SDS011;2352;48.180;11.478;2023-05-18T03:25:52;5.40;;;4.90;;
4676;SDS011;2352;48.180;11.478;2023-05-18T03:28:57;5.87;;;5.40;;
4676;SDS011;2352;48.180;11.478;2023-05-18T03:32:01;5.83;;;5.30;;
4676;SDS011;2352;48.180;11.478;2023-05-18T03:35:04;7.80;;;5.70;;
4676;SDS011;2352;48.180;11.478;2023-05-18T03:38:08;5.97;;;5.47;;
4676;SDS011;2352;48.180;11.478;2023-05-18T03:41:11;6.37;;;5.13;;
4676;SDS011;2352;48.180;11.478;2023-05-18T03:44:15;6.57;;;5.90;;
4676;SDS011;2352;48.180;11.478;2023-05-18T03:47:19;5.87;;;5.37;;
4676;SDS011;2352;48.180;11.478;2023-05-18T03:50:22;5.50;;;4.97;;
4676;SDS011;2352;48.180;11.478;2023-05-18T03:53:25;9.97;;;5.50;;
4676;SDS011;2352;48.180;11.478;2023-05-18T03:56:29;15.57;;;5.93;;
4676;SDS011;2352;48.180;11.478;2023-05-18T03:59:33;5.80;;;5.10;;
4676;SDS011;2352;48.180;11.478;2023-05-18T04:02:36;6.83;;;6.23;;
4676;SDS011;2352;48.180;11.478;2023-05-18T04:05:39;6.10;;;5.60;;
4676;SDS011;2352;48.180;11.478;2023-05-18T04:08:43;6.70;;;5.83;;
4676;SDS011;2352;48.180;11.478;2023-05-18T04:11:46;6.90;;;6.30;;
4676;SDS011;2352;48.180;11.478;2023-05-18T04:14:50;8.40;;;6.13;;
4676;SDS011;2352;48.180;11.478;2023-05-18T04:17:54;6.20;;;5.60;;
4676;SDS011;2352;48.180;11.478;2023-05-18T04:20:57;6.93;;;6.33;;
4676;SDS011;2352;48.180;11.478;2023-05-18T04:24:00;8.73;;;6.73;;
4676;SDS011;2352;48.180;11.478;2023-05-18T04:27:05;6.33;;;5.73;;
4676;SDS011;2352;48.180;11.478;2023-05-18T04:30:11;6.43;;;5.90;;
4676;SDS011;2352;48.180;11.478;2023-05-18T04:33:15;6.70;;;6.20;;
4676;SDS011;2352;48.180;11.478;2023-05-18T04:36:20;5.60;;;5.20;;
4676;SDS011;2352;48.180;11.478;2023-05-18T04:39:25;6.63;;;5.93;;
4676;SDS011;2352;48.180;11.478;2023-05-18T04:42:29;7.77;;;6.90;;
4676;SDS011;2352;48.180;11.478;2023-05-18T04:45:35;7.57;;;7.07;;
4676;SDS011;2352;48.180;11.478;2023-05-18T04:48:39;7.63;;;7.00;;
4676;SDS011;2352;48.180;11.478;2023-05-18T04:51:42;8.33;;;6.63;;
4676;SDS011;2352;48.180;11.478;2023-05-18T04:54:47;7.63;;;7.03;;
4676;SDS011;2352;48.180;11.478;2023-05-18T04:57:50;7.70;;;7.00;;
4676;SDS011;2352;48.180;11.478;2023-05-18T05:00:57;8.27;;;7.47;;
4676;SDS011;2352;48.180;11.478;2023-05-18T05:04:01;7.90;;;6.47;;
4676;SDS011;2352;48.180;11.478;2023-05-18T05:07:06;8.07;;;7.27;;
4676;SDS011;2352;48.180;11.478;2023-05-18T05:10:09;7.53;;;7.00;;
4676;SDS011;2352;48.180;11.478;2023-05-18T05:13:12;7.43;;;6.73;;
4676;SDS011;2352;48.180;11.478;2023-05-18T05:16:17;6.93;;;6.53;;
4676;SDS011;2352;48.180;11.478;2023-05-18T05:19:21;6.90;;;6.40;;
4676;SDS011;2352;48.180;11.478;2023-05-18T05:22:24;9.63;;;7.17;;
4676;SDS011;2352;48.180;11.478;2023-05-18T05:25:27;7.60;;;7.00;;
4676;SDS011;2352;48.180;11.478;2023-05-18T05:28:31;7.20;;;6.60;;
4676;SDS011;2352;48.180;11.478;2023-05-18T05:31:36;7.43;;;6.83;;
4676;SDS011;2352;48.180;11.478;2023-05-18T05:34:39;6.97;;;6.47;;
4676;SDS011;2352;48.180;11.478;2023-05-18T05:37:45;6.60;;;6.10;;
4676;SDS011;2352;48.180;11.478;2023-05-18T05:40:48;6.93;;;6.30;;
4676;SDS011;2352;48.180;11.478;2023-05-18T05:43:52;8.47;;;7.23;;
4676;SDS011;2352;48.180;11.478;2023-05-18T05:46:56;7.00;;;6.50;;
4676;SDS011;2352;48.180;11.478;2023-05-18T05:50:00;6.63;;;6.07;;
4676;SDS011;2352;48.180;11.478;2023-05-18T05:53:03;7.30;;;6.60;;
4676;SDS011;2352;48.180;11.478;2023-05-18T05:56:06;7.70;;;6.37;;
4676;SDS011;2352;48.180;11.478;2023-05-18T05:59:10;6.33;;;5.73;;
4676;SDS011;2352;48.180;11.478;2023-05-18T06:02:14;7.97;;;7.37;;
4676;SDS011;2352;48.180;11.478;2023-05-18T06:05:18;6.53;;;6.03;;
4676;SDS011;2352;48.180;11.478;2023-05-18T06:08:21;7.43;;;6.83;;
4676;SDS011;2352;48.180;11.478;2023-05-18T06:11:25;8.83;;;7.63;;
4676;SDS011;2352;48.180;11.478;2023-05-18T06:14:28;7.70;;;6.80;;
4676;SDS011;2352;48.180;11.478;2023-05-18T06:17:33;6.47;;;5.97;;
4676;SDS011;2352;48.180;11.478;2023-05-18T06:20:36;6.60;;;5.87;;
4676;SDS011;2352;48.180;11.478;2023-05-18T06:23:39;7.43;;;5.90;;
4676;SDS011;2352;48.180;11.478;2023-05-18T06:26:42;5.63;;;5.23;;
4676;SDS011;2352;48.180;11.478;2023-05-18T06:29:46;6.03;;;5.53;;
4676;SDS011;2352;48.180;11.478;2023-05-18T06:32:50;6.93;;;6.27;;
4676;SDS011;2352;48.180;11.478;2023-05-18T06:35:54;6.43;;;5.77;;
4676;SDS011;2352;48.180;11.478;2023-05-18T06:38:57;6.07;;;5.53;;
4676;SDS011;2352;48.180;11.478;2023-05-18T06:42:01;6.27;;;5.70;;
4676;SDS011;2352;48.180;11.478;2023-05-18T06:45:04;9.73;;;5.47;;
4676;SDS011;2352;48.180;11.478;2023-05-18T06:48:09;6.27;;;5.80;;
4676;SDS011;2352;48.180;11.478;2023-05-18T06:51:12;8.70;;;5.80;;
4676;SDS011;2352;48.180;11.478;2023-05-18T06:54:16;5.30;;;4.47;;
4676;SDS011;2352;48.180;11.478;2023-05-18T06:57:20;5.27;;;4.73;;
4676;SDS011;2352;48.180;11.478;2023-05-18T07:00:23;6.13;;;4.97;;
4676;SDS011;2352;48.180;11.478;2023-05-18T07:03:28;5.33;;;4.83;;
4676;SDS011;2352;48.180;11.478;2023-05-18T07:06:32;6.13;;;4.47;;
4676;SDS011;2352;48.180;11.478;2023-05-18T07:09:36;5.50;;;4.90;;
4676;SDS011;2352;48.180;11.478;2023-05-18T07:12:42;6.50;;;4.67;;
4676;SDS011;2352;48.180;11.478;2023-05-18T07:15:45;5.10;;;4.37;;
4676;SDS011;2352;48.180;11.478;2023-05-18T07:18:49;6.43;;;4.57;;
4676;SDS011;2352;48.180;11.478;2023-05-18T07:21:53;6.60;;;4.67;;
4676;SDS011;2352;48.180;11.478;2023-05-18T07:24:57;5.27;;;4.77;;
4676;SDS011;2352;48.180;11.478;2023-05-18T07:28:00;5.33;;;4.83;;
4676;SDS011;2352;48.180;11.478;2023-05-18T07:31:04;5.70;;;4.57;;
4676;SDS011;2352;48.180;11.478;2023-05-18T07:34:09;11.17;;;5.23;;
4676;SDS011;2352;48.180;11.478;2023-05-18T07:37:12;5.30;;;4.60;;
4676;SDS011;2352;48.180;11.478;2023-05-18T07:40:16;4.70;;;4.33;;
4676;SDS011;2352;48.180;11.478;2023-05-18T07:43:19;5.00;;;4.60;;
4676;SDS011;2352;48.180;11.478;2023-05-18T07:46:22;4.70;;;3.87;;
4676;SDS011;2352;48.180;11.478;2023-05-18T07:49:27;4.60;;;3.63;;
4676;SDS011;2352;48.180;11.478;2023-05-18T07:52:30;4.83;;;3.73;;
4676;SDS011;2352;48.180;11.478;2023-05-18T07:55:33;4.50;;;4.10;;
4676;SDS011;2352;48.180;11.478;2023-05-18T07:58:37;5.80;;;3.70;;
4676;SDS011;2352;48.180;11.478;2023-05-18T08:01:40;4.50;;;3.83;;
4676;SDS011;2352;48.180;11.478;2023-05-18T08:04:46;4.63;;;4.23;;
4676;SDS011;2352;48.180;11.478;2023-05-18T08:07:49;5.17;;;4.10;;
4676;SDS011;2352;48.180;11.478;2023-05-18T08:10:53;7.03;;;4.27;;
4676;SDS011;2352;48.180;11.478;2023-05-18T08:13:56;9.87;;;4.50;;
4676;SDS011;2352;48.180;11.478;2023-05-18T08:16:59;5.97;;;4.87;;
4676;SDS011;2352;48.180;11.478;2023-05-18T08:20:05;8.67;;;3.90;;
4676;SDS011;2352;48.180;11.478;2023-05-18T08:23:08;6.63;;;4.67;;
4676;SDS011;2352;48.180;11.478;2023-05-18T08:26:12;4.47;;;3.90;;
4676;SDS011;2352;48.180;11.478;2023-05-18T08:29:15;6.13;;;4.07;;
4676;SDS011;2352;48.180;11.478;2023-05-18T08:32:18;5.80;;;4.00;;
4676;SDS011;2352;48.180;11.478;2023-05-18T08:35:23;3.70;;;3.40;;
4676;SDS011;2352;48.180;11.478;2023-05-18T08:38:26;6.97;;;4.17;;
4676;SDS011;2352;48.180;11.478;2023-05-18T08:41:31;9.80;;;3.63;;
4676;SDS011;2352;48.180;11.478;2023-05-18T08:44:37;4.93;;;4.13;;
4676;SDS011;2352;48.180;11.478;2023-05-18T08:47:41;6.43;;;3.47;;
4676;SDS011;2352;48.180;11.478;2023-05-18T08:50:47;5.00;;;3.17;;
4676;SDS011;2352;48.180;11.478;2023-05-18T08:53:51;3.13;;;2.93;;
4676;SDS011;2352;48.180;11.478;2023-05-18T08:56:55;5.93;;;4.07;;
4676;SDS011;2352;48.180;11.478;2023-05-18T08:59:59;3.70;;;3.40;;
4676;SDS011;2352;48.180;11.478;2023-05-18T09:03:03;4.47;;;3.90;;
4676;SDS011;2352;48.180;11.478;2023-05-18T09:06:08;4.07;;;3.57;;
4676;SDS011;2352;48.180;11.478;2023-05-18T09:09:11;7.93;;;3.97;;
4676;SDS011;2352;48.180;11.478;2023-05-18T09:12:16;4.27;;;3.57;;
4676;SDS011;2352;48.180;11.478;2023-05-18T09:15:24;6.73;;;4.00;;
4676;SDS011;2352;48.180;11.478;2023-05-18T09:18:28;3.03;;;2.73;;
4676;SDS011;2352;48.180;11.478;2023-05-18T09:21:32;8.40;;;3.40;;
4676;SDS011;2352;48.180;11.478;2023-05-18T09:24:36;5.60;;;2.83;;
4676;SDS011;2352;48.180;11.478;2023-05-18T09:27:39;7.60;;;3.40;;
4676;SDS011;2352;48.180;11.478;2023-05-18T09:30:42;5.03;;;3.00;;
4676;SDS011;2352;48.180;11.478;2023-05-18T09:33:46;5.13;;;2.77;;
4676;SDS011;2352;48.180;11.478;2023-05-18T09:36:51;5.77;;;3.57;;
4676;SDS011;2352;48.180;11.478;2023-05-18T09:39:58;3.70;;;2.50;;
4676;SDS011;2352;48.180;11.478;2023-05-18T09:43:05;3.83;;;2.93;;
4676;SDS011;2352;48.180;11.478;2023-05-18T09:46:09;4.77;;;3.53;;
4676;SDS011;2352;48.180;11.478;2023-05-18T09:49:20;3.53;;;2.73;;
4676;SDS011;2352;48.180;11.478;2023-05-18T09:52:25;5.20;;;3.60;;
4676;SDS011;2352;48.180;11.478;2023-05-18T09:55:28;7.03;;;3.10;;
4676;SDS011;2352;48.180;11.478;2023-05-18T09:58:32;4.47;;;3.20;;
4676;SDS011;2352;48.180;11.478;2023-05-18T10:01:36;4.07;;;3.00;;
4676;SDS011;2352;48.180;11.478;2023-05-18T10:04:42;5.33;;;2.93;;
4676;SDS011;2352;48.180;11.478;2023-05-18T10:07:47;8.20;;;3.73;;
4676;SDS011;2352;48.180;11.478;2023-05-18T10:10:50;4.93;;;3.50;;
4676;SDS011;2352;48.180;11.478;2023-05-18T10:13:53;5.70;;;3.83;;
4676;SDS011;2352;48.180;11.478;2023-05-18T10:16:57;5.97;;;3.47;;
4676;SDS011;2352;48.180;11.478;2023-05-18T10:20:16;9.60;;;3.90;;
4676;SDS011;2352;48.180;11.478;2023-05-18T10:23:21;4.23;;;3.27;;
4676;SDS011;2352;48.180;11.478;2023-05-18T10:26:25;7.63;;;3.93;;
4676;SDS011;2352;48.180;11.478;2023-05-18T10:29:30;2.80;;;2.60;;
4676;SDS011;2352;48.180;11.478;2023-05-18T10:32:34;4.47;;;3.57;;
4676;SDS011;2352;48.180;11.478;2023-05-18T10:35:38;5.77;;;3.67;;
4676;SDS011;2352;48.180;11.478;2023-05-18T10:38:43;5.00;;;3.43;;
4676;SDS011;2352;48.180;11.478;2023-05-18T10:41:46;3.37;;;3.07;;
4676;SDS011;2352;48.180;11.478;2023-05-18T10:44:50;5.43;;;3.50;;
4676;SDS011;2352;48.180;11.478;2023-05-18T10:47:54;7.63;;;2.90;;
4676;SDS011;2352;48.180;11.478;2023-05-18T10:50:59;4.87;;;3.50;;
4676;SDS011;2352;48.180;11.478;2023-05-18T10:54:10;4.70;;;3.70;;
4676;SDS011;2352;48.180;11.478;2023-05-18T10:57:14;5.73;;;3.17;;
4676;SDS011;2352;48.180;11.478;2023-05-18T11:00:18;5.57;;;2.70;;
4676;SDS011;2352;48.180;11.478;2023-05-18T11:03:21;3.87;;;3.10;;
4676;SDS011;2352;48.180;11.478;2023-05-18T11:06:27;4.43;;;2.63;;
4676;SDS011;2352;48.180;11.478;2023-05-18T11:09:32;2.80;;;2.57;;
4676;SDS011;2352;48.180;11.478;2023-05-18T11:12:36;3.73;;;2.40;;
4676;SDS011;2352;48.180;11.478;2023-05-18T11:19:04;3.83;;;2.60;;
4676;SDS011;2352;48.180;11.478;2023-05-18T11:22:10;4.47;;;3.20;;
4676;SDS011;2352;48.180;11.478;2023-05-18T11:28:34;4.57;;;3.63;;
4676;SDS011;2352;48.180;11.478;2023-05-18T11:31:45;3.40;;;2.90;;
4676;SDS011;2352;48.180;11.478;2023-05-18T11:34:49;2.80;;;1.90;;
4676;SDS011;2352;48.180;11.478;2023-05-18T11:37:53;4.40;;;2.80;;
4676;SDS011;2352;48.180;11.478;2023-05-18T11:40:57;2.93;;;2.53;;
4676;SDS011;2352;48.180;11.478;2023-05-18T11:44:13;2.77;;;2.47;;
4676;SDS011;2352;48.180;11.478;2023-05-18T11:47:17;7.40;;;2.67;;
4676;SDS011;2352;48.180;11.478;2023-05-18T11:50:20;2.93;;;2.67;;
4676;SDS011;2352;48.180;11.478;2023-05-18T11:53:24;4.33;;;2.97;;
4676;SDS011;2352;48.180;11.478;2023-05-18T11:56:29;4.17;;;2.73;;
4676;SDS011;2352;48.180;11.478;2023-05-18T11:59:37;4.43;;;2.87;;
4676;SDS011;2352;48.180;11.478;2023-05-18T12:02:41;5.87;;;3.17;;
4676;SDS011;2352;48.180;11.478;2023-05-18T12:05:46;4.63;;;3.00;;
4676;SDS011;2352;48.180;11.478;2023-05-18T12:08:50;4.77;;;2.63;;
4676;SDS011;2352;48.180;11.478;2023-05-18T12:11:54;4.97;;;2.10;;
4676;SDS011;2352;48.180;11.478;2023-05-18T12:14:59;7.17;;;3.27;;
4676;SDS011;2352;48.180;11.478;2023-05-18T12:18:03;1.90;;;1.80;;
4676;SDS011;2352;48.180;11.478;2023-05-18T12:21:06;3.40;;;2.67;;
4676;SDS011;2352;48.180;11.478;2023-05-18T12:24:10;3.30;;;2.20;;
4676;SDS011;2352;48.180;11.478;2023-05-18T12:27:13;2.80;;;2.40;;
4676;SDS011;2352;48.180;11.478;2023-05-18T12:30:18;3.93;;;2.50;;
4676;SDS011;2352;48.180;11.478;2023-05-18T12:33:22;6.13;;;3.20;;
4676;SDS011;2352;48.180;11.478;2023-05-18T12:36:25;3.80;;;2.80;;
4676;SDS011;2352;48.180;11.478;2023-05-18T12:39:28;4.10;;;1.80;;
4676;SDS011;2352;48.180;11.478;2023-05-18T12:42:31;6.57;;;2.30;;
4676;SDS011;2352;48.180;11.478;2023-05-18T12:45:36;3.53;;;2.07;;
4676;SDS011;2352;48.180;11.478;2023-05-18T12:48:44;3.87;;;2.57;;
4676;SDS011;2352;48.180;11.478;2023-05-18T12:51:47;3.80;;;2.50;;
4676;SDS011;2352;48.180;11.478;2023-05-18T12:54:52;4.10;;;2.43;;
4676;SDS011;2352;48.180;11.478;2023-05-18T12:58:00;5.63;;;2.47;;
4676;SDS011;2352;48.180;11.478;2023-05-18T13:01:08;3.23;;;1.83;;
4676;SDS011;2352;48.180;11.478;2023-05-18T13:04:12;2.53;;;1.80;;
4676;SDS011;2352;48.180;11.478;2023-05-18T13:07:15;7.90;;;2.60;;
4676;SDS011;2352;48.180;11.478;2023-05-18T13:10:19;2.87;;;2.30;;
4676;SDS011;2352;48.180;11.478;2023-05-18T13:13:22;5.03;;;2.10;;
4676;SDS011;2352;48.180;11.478;2023-05-18T13:16:27;5.70;;;2.53;;
4676;SDS011;2352;48.180;11.478;2023-05-18T13:19:30;6.07;;;3.27;;
4676;SDS011;2352;48.180;11.478;2023-05-18T13:22:36;2.70;;;2.40;;
4676;SDS011;2352;48.180;11.478;2023-05-18T13:25:40;3.90;;;2.00;;
4676;SDS011;2352;48.180;11.478;2023-05-18T13:28:43;5.77;;;2.90;;
4676;SDS011;2352;48.180;11.478;2023-05-18T13:31:48;2.70;;;2.33;;
4676;SDS011;2352;48.180;11.478;2023-05-18T13:34:51;7.47;;;2.80;;
4676;SDS011;2352;48.180;11.478;2023-05-18T13:37:55;2.63;;;2.43;;
4676;SDS011;2352;48.180;11.478;2023-05-18T13:40:58;4.17;;;2.20;;
4676;SDS011;2352;48.180;11.478;2023-05-18T13:44:01;3.30;;;2.20;;
4676;SDS011;2352;48.180;11.478;2023-05-18T13:47:06;2.13;;;1.73;;
4676;SDS011;2352;48.180;11.478;2023-05-18T13:50:09;6.37;;;2.37;;
4676;SDS011;2352;48.180;11.478;2023-05-18T13:53:13;4.10;;;2.03;;
4676;SDS011;2352;48.180;11.478;2023-05-18T13:56:16;3.37;;;2.17;;
4676;SDS011;2352;48.180;11.478;2023-05-18T13:59:19;3.00;;;2.33;;
4676;SDS011;2352;48.180;11.478;2023-05-18T14:02:24;4.47;;;2.60;;
4676;SDS011;2352;48.180;11.478;2023-05-18T14:05:28;5.63;;;2.27;;
4676;SDS011;2352;48.180;11.478;2023-05-18T14:08:31;2.20;;;1.80;;
4676;SDS011;2352;48.180;11.478;2023-05-18T14:11:34;3.33;;;2.00;;
4676;SDS011;2352;48.180;11.478;2023-05-18T14:14:38;6.53;;;3.40;;
4676;SDS011;2352;48.180;11.478;2023-05-18T14:17:44;1.50;;;1.40;;
4676;SDS011;2352;48.180;11.478;2023-05-18T14:20:47;3.27;;;2.10;;
4676;SDS011;2352;48.180;11.478;2023-05-18T14:23:51;2.47;;;1.53;;
4676;SDS011;2352;48.180;11.478;2023-05-18T14:26:54;2.10;;;1.80;;
4676;SDS011;2352;48.180;11.478;2023-05-18T14:29:57;2.33;;;2.13;;
4676;SDS011;2352;48.180;11.478;2023-05-18T14:33:02;3.53;;;2.57;;
4676;SDS011;2352;48.180;11.478;2023-05-18T14:36:06;2.97;;;2.23;;
4676;SDS011;2352;48.180;11.478;2023-05-18T14:39:09;3.07;;;2.20;;
4676;SDS011;2352;48.180;11.478;2023-05-18T14:42:12;5.43;;;2.53;;
4676;SDS011;2352;48.180;11.478;2023-05-18T14:45:15;3.87;;;2.87;;
4676;SDS011;2352;48.180;11.478;2023-05-18T14:48:20;2.50;;;2.20;;
4676;SDS011;2352;48.180;11.478;2023-05-18T14:51:23;3.20;;;2.90;;
4676;SDS011;2352;48.180;11.478;2023-05-18T14:54:27;7.53;;;1.80;;
4676;SDS011;2352;48.180;11.478;2023-05-18T14:57:30;4.93;;;1.83;;
4676;SDS011;2352;48.180;11.478;2023-05-18T15:00:33;3.47;;;2.43;;
4676;SDS011;2352;48.180;11.478;2023-05-18T15:03:38;5.23;;;2.73;;
4676;SDS011;2352;48.180;11.478;2023-05-18T15:06:41;4.27;;;2.67;;
4676;SDS011;2352;48.180;11.478;2023-05-18T15:09:44;4.50;;;2.13;;
4676;SDS011;2352;48.180;11.478;2023-05-18T15:12:48;2.73;;;2.40;;
4676;SDS011;2352;48.180;11.478;2023-05-18T15:15:51;6.87;;;2.67;;
4676;SDS011;2352;48.180;11.478;2023-05-18T15:18:56;2.77;;;2.57;;
4676;SDS011;2352;48.180;11.478;2023-05-18T15:21:59;3.07;;;2.33;;
4676;SDS011;2352;48.180;11.478;2023-05-18T15:25:02;2.37;;;1.90;;
4676;SDS011;2352;48.180;11.478;2023-05-18T15:28:07;2.77;;;2.27;;
4676;SDS011;2352;48.180;11.478;2023-05-18T15:31:11;2.27;;;2.07;;
4676;SDS011;2352;48.180;11.478;2023-05-18T15:34:15;2.10;;;1.37;;
4676;SDS011;2352;48.180;11.478;2023-05-18T15:37:19;2.30;;;1.50;;
4676;SDS011;2352;48.180;11.478;2023-05-18T15:40:22;2.70;;;1.90;;
4676;SDS011;2352;48.180;11.478;2023-05-18T15:43:25;2.97;;;1.73;;
4676;SDS011;2352;48.180;11.478;2023-05-18T15:46:30;3.57;;;1.90;;
4676;SDS011;2352;48.180;11.478;2023-05-18T15:49:37;1.73;;;1.63;;
4676;SDS011;2352;48.180;11.478;2023-05-18T15:52:40;3.73;;;1.50;;
4676;SDS011;2352;48.180;11.478;2023-05-18T15:55:44;3.67;;;2.10;;
4676;SDS011;2352;48.180;11.478;2023-05-18T15:58:49;3.20;;;1.60;;
4676;SDS011;2352;48.180;11.478;2023-05-18T16:01:52;2.43;;;1.70;;
4676;SDS011;2352;48.180;11.478;2023-05-18T16:04:57;2.10;;;1.57;;
4676;SDS011;2352;48.180;11.478;2023-05-18T16:08:00;5.50;;;1.90;;
4676;SDS011;2352;48.180;11.478;2023-05-18T16:11:04;2.13;;;1.93;;
4676;SDS011;2352;48.180;11.478;2023-05-18T16:14:07;2.50;;;1.80;;
4676;SDS011;2352;48.180;11.478;2023-05-18T16:17:10;1.20;;;1.10;;
4676;SDS011;2352;48.180;11.478;2023-05-18T16:20:15;2.77;;;1.80;;
4676;SDS011;2352;48.180;11.478;2023-05-18T16:23:19;2.60;;;1.30;;
4676;SDS011;2352;48.180;11.478;2023-05-18T16:26:22;2.03;;;1.73;;
4676;SDS011;2352;48.180;11.478;2023-05-18T16:29:26;4.70;;;1.70;;
4676;SDS011;2352;48.180;11.478;2023-05-18T16:32:29;4.10;;;2.13;;
4676;SDS011;2352;48.180;11.478;2023-05-18T16:35:34;2.10;;;1.87;;
4676;SDS011;2352;48.180;11.478;2023-05-18T16:38:37;3.83;;;1.93;;
4676;SDS011;2352;48.180;11.478;2023-05-18T16:41:40;1.80;;;1.70;;
4676;SDS011;2352;48.180;11.478;2023-05-18T16:44:44;3.03;;;2.17;;
4676;SDS011;2352;48.180;11.478;2023-05-18T16:47:47;3.03;;;2.43;;
4676;SDS011;2352;48.180;11.478;2023-05-18T16:50:51;1.97;;;1.83;;
4676;SDS011;2352;48.180;11.478;2023-05-18T16:53:55;1.60;;;1.50;;
4676;SDS011;2352;48.180;11.478;2023-05-18T16:56:58;6.67;;;2.73;;
4676;SDS011;2352;48.180;11.478;2023-05-18T17:00:02;2.93;;;1.50;;
4676;SDS011;2352;48.180;11.478;2023-05-18T17:03:08;3.23;;;1.40;;
4676;SDS011;2352;48.180;11.478;2023-05-18T17:06:14;2.70;;;2.13;;
4676;SDS011;2352;48.180;11.478;2023-05-18T17:09:20;3.70;;;1.97;;
4676;SDS011;2352;48.180;11.478;2023-05-18T17:12:23;3.80;;;2.00;;
4676;SDS011;2352;48.180;11.478;2023-05-18T17:15:26;3.07;;;2.47;;
4676;SDS011;2352;48.180;11.478;2023-05-18T17:18:31;5.50;;;2.20;;
4676;SDS011;2352;48.180;11.478;2023-05-18T17:21:35;2.07;;;1.87;;
4676;SDS011;2352;48.180;11.478;2023-05-18T17:24:39;1.70;;;1.60;;
4676;SDS011;2352;48.180;11.478;2023-05-18T17:27:42;2.20;;;1.40;;
4676;SDS011;2352;48.180;11.478;2023-05-18T17:30:45;3.63;;;2.20;;
4676;SDS011;2352;48.180;11.478;2023-05-18T17:33:48;3.00;;;2.47;;
4676;SDS011;2352;48.180;11.478;2023-05-18T17:36:53;1.50;;;1.40;;
4676;SDS011;2352;48.180;11.478;2023-05-18T17:39:56;4.93;;;1.57;;
4676;SDS011;2352;48.180;11.478;2023-05-18T17:43:00;4.23;;;2.63;;
4676;SDS011;2352;48.180;11.478;2023-05-18T17:46:03;3.03;;;2.83;;
4676;SDS011;2352;48.180;11.478;2023-05-18T17:49:06;4.23;;;3.00;;
4676;SDS011;2352;48.180;11.478;2023-05-18T17:52:11;2.60;;;2.23;;
4676;SDS011;2352;48.180;11.478;2023-05-18T17:55:14;4.33;;;3.13;;
4676;SDS011;2352;48.180;11.478;2023-05-18T17:58:17;2.77;;;2.53;;
4676;SDS011;2352;48.180;11.478;2023-05-18T18:01:21;2.73;;;2.13;;
4676;SDS011;2352;48.180;11.478;2023-05-18T18:04:25;2.60;;;2.17;;
4676;SDS011;2352;48.180;11.478;2023-05-18T18:07:29;4.23;;;2.33;;
4676;SDS011;2352;48.180;11.478;2023-05-18T18:10:34;3.07;;;2.23;;
4676;SDS011;2352;48.180;11.478;2023-05-18T18:13:37;2.50;;;2.00;;
4676;SDS011;2352;48.180;11.478;2023-05-18T18:16:40;2.43;;;1.80;;
4676;SDS011;2352;48.180;11.478;2023-05-18T18:19:44;3.60;;;2.13;;
4676;SDS011;2352;48.180;11.478;2023-05-18T18:22:48;1.97;;;1.67;;
4676;SDS011;2352;48.180;11.478;2023-05-18T18:25:51;4.50;;;2.43;;
4676;SDS011;2352;48.180;11.478;2023-05-18T18:28:55;2.60;;;2.40;;
4676;SDS011;2352;48.180;11.478;2023-05-18T18:31:58;2.63;;;2.43;;
4676;SDS011;2352;48.180;11.478;2023-05-18T18:35:01;2.83;;;1.87;;
4676;SDS011;2352;48.180;11.478;2023-05-18T18:38:06;3.77;;;2.10;;
4676;SDS011;2352;48.180;11.478;2023-05-18T18:41:09;2.70;;;2.07;;
4676;SDS011;2352;48.180;11.478;2023-05-18T18:44:15;2.47;;;1.90;;
4676;SDS011;2352;48.180;11.478;2023-05-18T18:47:18;2.80;;;2.10;;
4676;SDS011;2352;48.180;11.478;2023-05-18T18:50:21;5.50;;;2.73;;
4676;SDS011;2352;48.180;11.478;2023-05-18T18:53:26;2.97;;;2.77;;